Huvudsida
METAR-TAF:

METAR-TAF

Flygplatser :

Pointe Noire Airport

Pointe-Noire, Kongo

latitud: 04-49S, longitud: 011-54E, höjd: 17 m

Aktuellt väderrapport

Denna rapport gjordes för 34 minuter sedan, klockan 07:00 UTC
Vind 5 kt från syd/sydost, varierande mellan ost/sydost och syd
Temperatur 23°C
Fuktighet 83%
Tryck 1017 hPa
Sikt: 7000 m
Spridda moln på en höjd av 900 ft
Mulet på en höjd av 2100 ft

METAR: FCPP 150700Z 15005KT 120V180 7000 SCT009 OVC021 23/20 Q1017 NOSIG

Tid: 08:34 (07:34 UTC)

Väderprognos

Denna rapport gjordes för 2 timmar och 34 minuter sedan, klockan 05:00 UTC
Prognos gäller från 15 kl. 06 UTC till 16 kl. 06 UTC
Vind 4 kt från syd
Sikt: 4000 m
Spridda moln på en höjd av 1000 ft
Brutna moln på en höjd av 2300 ft
fuktdis
Blir
från 15 kl. 07 UTC till 15 kl. 08 UTC
Sikt: 7000 m

TAF: FCPP 150500Z 1506/1606 18004KT 4000 BR SCT010 BKN023 BECMG 1507/1508 7000 NSW

Aktuella väderrapporter och prognoser från 4000 flygplatser (METAR- och TAF-rapporter).

De tillgängliga stationerna syns som gula och röda prickar på kartan.

För musen över prickarna för att se namnen på stationerna.

Klicka sedan för att få väderrapporter och prognoser.

För att ändra kartan: Klicka på de gröna knapparna med ett svart kors på för att zooma in; den gröna knappen med ett streck på för att zooma ut; eller på de gröna pilarna för angränsande kartor.


METAR-TAF: